createdAt,value
2023-03-17T01:00:50.919Z,2.6
2023-03-17T01:30:51.728Z,2.3
2023-03-17T02:30:49.713Z,1.8
2023-03-17T03:15:40.566Z,1.9
2023-03-17T03:30:48.469Z,1.4
2023-03-17T03:46:00.128Z,1.6
2023-03-17T04:27:55.475Z,1.1
2023-03-17T04:46:12.688Z,1.8
2023-03-17T05:00:46.423Z,1.7
2023-03-17T06:25:56.559Z,2.2
2023-03-17T08:26:00.560Z,1.2
2023-03-17T08:55:54.390Z,1.8
2023-03-17T09:11:11.320Z,3.5
2023-03-17T09:25:53.065Z,1.8
2023-03-17T09:55:59.935Z,1.1
2023-03-17T10:10:59.741Z,0.9
2023-03-17T10:25:55.970Z,0.9
2023-03-17T10:41:06.967Z,1.1
2023-03-17T10:55:58.337Z,1.2
2023-03-17T11:10:57.054Z,0.7
2023-03-17T11:25:57.645Z,0.4
2023-03-17T11:40:58.133Z,0.6
2023-03-17T11:55:58.704Z,0.6
2023-03-17T12:10:59.397Z,0.9
2023-03-17T12:26:00.044Z,0.9
2023-03-17T12:41:07.791Z,0.8
2023-03-17T12:56:00.965Z,0.9
2023-03-17T13:11:01.492Z,1.2
2023-03-17T13:26:02.179Z,1.5
2023-03-17T13:41:04.569Z,1.2
2023-03-17T13:56:04.947Z,1.4
2023-03-17T14:11:05.484Z,1.2
2023-03-17T14:26:04.499Z,1.4
2023-03-17T14:41:08.332Z,1
2023-03-17T14:56:06.903Z,1.4
2023-03-17T15:11:31.089Z,1.1
2023-03-17T15:26:06.746Z,1
2023-03-17T15:41:08.829Z,2.8
2023-03-17T15:56:15.966Z,2.9
2023-03-17T16:11:19.363Z,1.9
2023-03-17T16:26:17.250Z,1.6
2023-03-17T16:41:09.398Z,2
2023-03-17T16:56:12.528Z,6.1
2023-03-17T17:11:15.217Z,8.5
2023-03-17T17:26:25.886Z,8.3
2023-03-17T17:41:13.295Z,8.6
2023-03-17T17:56:22.455Z,7.4
2023-03-17T18:11:12.121Z,7
2023-03-17T18:26:13.634Z,6
2023-03-17T18:41:16.045Z,7.3
2023-03-17T18:56:14.255Z,8.4
2023-03-17T19:11:19.476Z,13
2023-03-17T19:56:54.259Z,12.5
2023-03-17T20:11:21.412Z,8
2023-03-17T20:26:17.361Z,9.2
2023-03-17T20:41:31.624Z,8.2
2023-03-17T21:11:49.198Z,8.3
2023-03-17T21:26:23.041Z,6.5
2023-03-17T21:41:26.373Z,5.9
2023-03-17T21:56:25.342Z,5
2023-03-17T22:11:20.626Z,3.8
2023-03-17T22:26:33.936Z,4
2023-03-17T22:41:25.632Z,4.7
2023-03-17T22:56:22.170Z,4
2023-03-17T23:01:00.449Z,4.3
2023-03-17T23:15:39.140Z,3.1
2023-03-17T23:30:39.812Z,2.2
2023-03-17T23:45:36.835Z,3.2
